Richmond Hill, North Carolina
Current Conditions -  °F | °C
As of 10:55 AM on Thursday 27 Nov 2014 (Local Time) from KMWK Reporting Station
Overcast Overcast  
Wind Chill: 40°   Ceiling: 4000
Heat Index: 42°   Visibility: 10mi
Dew Point: 39°   Wind: 5mph
Humidity: 88%   Direction: 330°NNW
Pressure: 30.09"   Gusts: NA
Location:  36.2374°N, 80.6343°W
Report Text: KMWK 271555Z AUTO 33004KT 10SM SCT031 BKN040 OVC110 06/04 A3009 RMK AO2 T00580040
Loading
Personal Weather Stations






























Interactive Weather Map New forecast layout! Learn more

10-Day Weather Forecast

Advertisements
Track Severe Weather on mobile